Time;durP1;ratioP1;P1;durP2;ratioP2;P2;SDS_P1;SDS_P2;PMS_P1;PMS_P2;Temp;Humidity;BMP_temperature;BMP_pressure;BME280_temperature;BME280_humidity;BME280_pressure;Samples;Min_cycle;Max_cycle;Signal;HPM_P1;HPM_P2
2022/08/18 00:00:57;;;;;;;1062.18;972.83;;;24.40;99.90;;;;;;5043602;28;20210;-81
2022/08/18 00:03:24;;;;;;;1064.03;974.47;;;24.40;99.90;;;;;;5049553;28;20206;-80
2022/08/18 00:05:50;;;;;;;1057.75;968.55;;;24.40;99.90;;;;;;5037205;28;20210;-81
2022/08/18 00:08:17;;;;;;;1072.20;982.47;;;24.40;99.90;;;;;;5051942;28;20717;-81
2022/08/18 00:10:44;;;;;;;1065.35;975.65;;;24.30;99.90;;;;;;5038564;28;20198;-81
2022/08/18 00:13:11;;;;;;;1063.68;974.08;;;24.30;99.90;;;;;;5046128;28;20203;-81
2022/08/18 00:15:37;;;;;;;1061.45;972.15;;;24.30;99.90;;;;;;5037089;28;20205;-81
2022/08/18 00:18:06;;;;;;;1059.90;970.55;;;24.30;99.90;;;;;;5051869;28;20191;-81
2022/08/18 00:20:32;;;;;;;1058.68;969.40;;;24.30;99.90;;;;;;5040701;28;20238;-81
2022/08/18 00:22:59;;;;;;;1053.85;964.80;;;24.30;99.90;;;;;;5042873;28;20565;-80
2022/08/18 00:25:26;;;;;;;1067.90;978.38;;;24.30;99.90;;;;;;5041428;28;20196;-80
2022/08/18 00:27:53;;;;;;;1053.40;964.38;;;24.20;99.90;;;;;;5050273;28;20581;-81
2022/08/18 00:30:21;;;;;;;1054.57;965.47;;;24.20;99.90;;;;;;5049187;28;20222;-81
2022/08/18 00:32:52;;;;;;;1061.68;972.38;;;24.20;99.90;;;;;;5047791;28;20194;-80
2022/08/18 00:35:24;;;;;;;1065.93;976.47;;;24.20;99.90;;;;;;5043016;28;20202;-80
2022/08/18 00:37:51;;;;;;;1059.65;970.17;;;24.20;99.90;;;;;;5043404;28;20219;-80
2022/08/18 00:40:21;;;;;;;1055.85;966.53;;;24.20;99.90;;;;;;5047778;28;20203;-80
2022/08/18 00:42:50;;;;;;;1054.13;964.92;;;24.20;99.90;;;;;;5037247;28;20231;-80
2022/08/18 00:45:21;;;;;;;1050.35;961.55;;;24.10;99.90;;;;;;5036178;28;20196;-80
2022/08/18 00:47:48;;;;;;;1047.60;958.20;;;24.10;99.90;;;;;;5044036;28;20219;-80
2022/08/18 00:50:18;;;;;;;1058.93;969.55;;;24.10;99.90;;;;;;5040564;28;20211;-81
2022/08/18 00:52:55;;;;;;;1044.13;955.08;;;24.10;99.90;;;;;;5049117;28;20250;-81
2022/08/18 00:55:23;;;;;;;1049.35;960.35;;;24.10;99.90;;;;;;5046275;28;20198;-80
2022/08/18 00:57:53;;;;;;;1035.70;947.25;;;24.10;99.90;;;;;;5042048;28;20540;-80
2022/08/18 01:00:21;;;;;;;1071.53;981.63;;;24.00;99.90;;;;;;5043647;28;20573;-80
2022/08/18 01:02:54;;;;;;;1053.93;964.58;;;24.00;99.90;;;;;;5051064;28;20261;-81
2022/08/18 01:05:26;;;;;;;1051.43;962.30;;;24.00;99.90;;;;;;5038151;28;20195;-80
2022/08/18 01:07:55;;;;;;;1048.30;959.28;;;24.00;99.90;;;;;;5047288;28;20216;-80
2022/08/18 01:10:23;;;;;;;1029.50;940.92;;;24.00;99.90;;;;;;5049472;28;20226;-80
2022/08/18 01:12:52;;;;;;;1049.47;960.08;;;23.90;99.90;;;;;;5049737;28;20199;-80
2022/08/18 01:15:21;;;;;;;1046.82;957.47;;;23.90;99.90;;;;;;5044512;28;20191;-80
2022/08/18 01:23:25;;;;;;;1052.15;962.67;;;23.90;99.90;;;;;;5046152;28;22327;-81
2022/08/18 01:26:02;;;;;;;1043.25;954.38;;;23.90;99.90;;;;;;5042191;28;20203;-81
2022/08/18 01:28:31;;;;;;;1048.05;958.97;;;23.80;99.90;;;;;;5047599;28;20582;-81
2022/08/18 01:30:59;;;;;;;1032.20;943.75;;;23.80;99.90;;;;;;5043935;28;20195;-80
2022/08/18 01:33:31;;;;;;;1049.80;960.80;;;23.80;99.90;;;;;;5048622;28;20199;-81
2022/08/18 01:36:00;;;;;;;1030.20;941.80;;;23.80;99.90;;;;;;5035716;28;20203;-81
2022/08/18 01:38:30;;;;;;;1046.45;957.42;;;23.80;99.90;;;;;;5051510;28;20281;-81
2022/08/18 01:40:57;;;;;;;1040.28;951.55;;;23.80;99.90;;;;;;5046563;28;20211;-80
2022/08/18 01:43:24;;;;;;;1045.35;956.42;;;23.70;99.90;;;;;;5039606;28;21174;-81
2022/08/18 01:45:51;;;;;;;1036.55;947.75;;;23.70;99.90;;;;;;5043362;28;20195;-80
2022/08/18 01:48:18;;;;;;;1042.68;953.75;;;23.70;99.90;;;;;;5042382;28;20551;-81
2022/08/18 01:50:48;;;;;;;1036.50;947.60;;;23.70;99.90;;;;;;5042076;28;20206;-80
2022/08/18 01:53:16;;;;;;;1045.18;956.38;;;23.70;99.90;;;;;;5054537;28;20265;-80
2022/08/18 01:55:44;;;;;;;1035.43;947.15;;;23.70;99.90;;;;;;5048653;28;20203;-81
2022/08/18 01:58:11;;;;;;;1039.05;950.40;;;23.60;99.90;;;;;;5049836;28;20642;-81
2022/08/18 02:00:38;;;;;;;1041.70;953.03;;;23.60;99.90;;;;;;5039678;28;20206;-81
2022/08/18 02:03:08;;;;;;;1024.53;936.40;;;23.60;99.90;;;;;;5050415;28;20245;-80
2022/08/18 02:05:39;;;;;;;1040.10;951.53;;;23.60;99.90;;;;;;5047994;28;20210;-80
2022/08/18 02:08:07;;;;;;;1036.07;947.78;;;23.60;99.90;;;;;;5046977;28;20298;-81
2022/08/18 02:10:34;;;;;;;1023.63;935.53;;;23.50;99.90;;;;;;5045784;28;20205;-81
2022/08/18 02:13:02;;;;;;;1021.65;933.83;;;23.50;99.90;;;;;;5048029;28;20636;-81
2022/08/18 02:15:29;;;;;;;1024.60;936.50;;;23.50;99.90;;;;;;5041530;28;20204;-81
2022/08/18 02:17:56;;;;;;;1026.25;938.22;;;23.50;99.90;;;;;;5052290;28;20187;-81
2022/08/18 02:20:24;;;;;;;1043.00;952.92;;;23.50;99.90;;;;;;5042207;28;20215;-81
2022/08/18 02:22:51;;;;;;;1048.05;958.22;;;23.50;99.90;;;;;;5052898;28;20203;-81
2022/08/18 02:25:18;;;;;;;1051.60;961.63;;;23.50;99.90;;;;;;5046866;28;20195;-81
2022/08/18 02:27:46;;;;;;;1045.03;955.10;;;23.40;99.90;;;;;;5051841;28;20215;-80
2022/08/18 02:30:19;;;;;;;1052.65;962.63;;;23.40;99.90;;;;;;5042264;28;20195;-80
2022/08/18 02:32:45;;;;;;;1050.85;960.88;;;23.40;99.90;;;;;;5051225;28;20195;-81
2022/08/18 02:35:12;;;;;;;1053.65;963.28;;;23.40;99.90;;;;;;5046621;28;20199;-81
2022/08/18 02:37:40;;;;;;;1045.25;955.42;;;23.40;99.90;;;;;;5045694;28;20195;-80
2022/08/18 02:40:08;;;;;;;1032.28;942.97;;;23.40;99.90;;;;;;5032180;28;20450;-80
2022/08/18 02:42:37;;;;;;;1045.95;956.00;;;23.40;99.90;;;;;;5048508;28;20212;-81
2022/08/18 02:45:04;;;;;;;1042.85;953.13;;;23.30;99.90;;;;;;5053756;28;20203;-81
2022/08/18 02:47:33;;;;;;;1053.63;963.40;;;23.30;99.90;;;;;;5049276;28;20222;-79
2022/08/18 02:49:59;;;;;;;1047.32;957.53;;;23.30;99.90;;;;;;5046749;28;20670;-81
2022/08/18 02:52:28;;;;;;;1033.68;944.42;;;23.30;99.90;;;;;;5052116;28;20203;-81
2022/08/18 02:54:55;;;;;;;1034.18;944.88;;;23.30;99.90;;;;;;5048152;28;20838;-81
2022/08/18 02:57:22;;;;;;;1029.07;939.83;;;23.30;99.90;;;;;;5042124;28;20695;-81
2022/08/18 02:59:49;;;;;;;1029.25;939.90;;;23.30;99.90;;;;;;5047789;28;20320;-81
2022/08/18 03:02:15;;;;;;;1039.70;950.00;;;23.30;99.90;;;;;;5047616;28;20199;-80
2022/08/18 03:04:44;;;;;;;1033.78;943.85;;;23.20;99.90;;;;;;5040231;28;20207;-81
2022/08/18 03:07:10;;;;;;;1031.82;942.50;;;23.20;99.90;;;;;;5050421;28;20214;-81
2022/08/18 03:09:38;;;;;;;1040.45;950.50;;;23.20;99.90;;;;;;5045750;28;20204;-81
2022/08/18 03:12:07;;;;;;;1026.57;937.28;;;23.20;99.90;;;;;;5045251;28;20214;-81
2022/08/18 03:14:35;;;;;;;1023.90;934.78;;;23.20;99.90;;;;;;5048616;28;20199;-82
2022/08/18 03:17:05;;;;;;;1026.93;937.53;;;23.20;99.90;;;;;;5048187;28;20199;-81
2022/08/18 03:19:31;;;;;;;1038.07;948.42;;;23.20;99.90;;;;;;5042931;28;20220;-82
2022/08/18 03:22:00;;;;;;;1031.35;941.67;;;23.20;99.90;;;;;;5048214;28;20210;-82
2022/08/18 03:24:28;;;;;;;1026.00;936.47;;;23.20;99.90;;;;;;5042708;28;20654;-82
2022/08/18 03:26:56;;;;;;;1026.43;937.20;;;23.20;99.90;;;;;;5050741;28;20199;-81
2022/08/18 03:29:23;;;;;;;1028.72;939.40;;;23.20;99.90;;;;;;5036347;28;20215;-80
2022/08/18 03:31:50;;;;;;;1036.43;947.13;;;23.20;99.90;;;;;;5043971;28;20207;-81
2022/08/18 03:34:19;;;;;;;1028.70;939.17;;;23.20;99.90;;;;;;5043202;28;20670;-81
2022/08/18 03:36:46;;;;;;;1041.50;951.80;;;23.10;99.90;;;;;;5052468;28;20206;-81
2022/08/18 03:39:14;;;;;;;1025.60;936.47;;;23.10;99.90;;;;;;5039294;28;20202;-81
2022/08/18 03:41:43;;;;;;;1034.10;944.53;;;23.10;99.90;;;;;;5051031;28;20211;-81
2022/08/18 03:44:11;;;;;;;1032.55;943.03;;;23.10;99.90;;;;;;5040789;28;20207;-81
2022/08/18 03:46:41;;;;;;;1040.35;950.72;;;23.10;99.90;;;;;;5048024;28;20207;-82
2022/08/18 03:49:08;;;;;;;1028.88;939.42;;;23.10;99.90;;;;;;5046018;28;20214;-82
2022/08/18 03:51:35;;;;;;;1032.28;942.80;;;23.10;99.90;;;;;;5047660;28;20226;-82
2022/08/18 03:54:05;;;;;;;1031.50;942.13;;;23.10;99.90;;;;;;5044405;28;20196;-81
2022/08/18 03:56:36;;;;;;;1032.85;942.83;;;23.10;99.90;;;;;;5046876;28;20209;-81
2022/08/18 03:59:07;;;;;;;1018.78;929.65;;;23.10;99.90;;;;;;5040427;28;20740;-82
2022/08/18 04:01:38;;;;;;;1019.28;930.17;;;23.10;99.90;;;;;;5047327;28;20728;-81
2022/08/18 04:04:06;;;;;;;1031.82;942.35;;;23.10;99.90;;;;;;5041922;28;20703;-80
2022/08/18 04:06:37;;;;;;;1022.30;933.17;;;23.00;99.90;;;;;;5039374;28;20206;-80
2022/08/18 04:09:06;;;;;;;1023.63;934.20;;;23.00;99.90;;;;;;5045517;28;20226;-80
2022/08/18 04:11:36;;;;;;;1020.28;931.00;;;23.00;99.90;;;;;;5048915;28;20194;-82
2022/08/18 04:14:03;;;;;;;1041.25;951.45;;;23.00;99.90;;;;;;5046548;28;20208;-80
2022/08/18 04:16:31;;;;;;;1032.22;942.65;;;23.00;99.90;;;;;;5047132;28;20202;-81
2022/08/18 04:19:00;;;;;;;1033.43;943.60;;;23.00;99.90;;;;;;5048100;28;20678;-81
2022/08/18 04:21:27;;;;;;;1017.90;928.70;;;23.00;99.90;;;;;;5038815;28;20207;-81
2022/08/18 04:23:54;;;;;;;1037.40;947.60;;;23.00;99.90;;;;;;5043706;28;20195;-82
2022/08/18 04:26:21;;;;;;;1024.30;934.60;;;23.00;99.90;;;;;;5051345;28;20381;-80
2022/08/18 04:28:49;;;;;;;1027.43;938.15;;;22.90;99.90;;;;;;5048283;28;20219;-81
2022/08/18 04:31:16;;;;;;;1032.43;942.67;;;22.90;99.90;;;;;;5038683;28;20211;-80
2022/08/18 04:33:44;;;;;;;1030.88;941.10;;;22.90;99.90;;;;;;5045385;28;20293;-78
2022/08/18 04:36:13;;;;;;;1023.40;933.70;;;22.90;99.90;;;;;;5043251;28;20613;-79
2022/08/18 04:38:41;;;;;;;1022.67;933.05;;;22.90;99.90;;;;;;5041505;28;20211;-79
2022/08/18 04:41:09;;;;;;;1025.63;936.22;;;22.90;99.90;;;;;;5045731;28;20199;-79
2022/08/18 04:43:36;;;;;;;1028.55;938.58;;;22.90;99.90;;;;;;5044184;28;20685;-79
2022/08/18 04:46:05;;;;;;;1022.97;933.38;;;22.90;99.90;;;;;;5042761;28;20202;-80
2022/08/18 04:48:33;;;;;;;1014.88;925.03;;;22.90;99.90;;;;;;5050387;28;20280;-78
2022/08/18 04:51:06;;;;;;;1004.70;915.75;;;22.90;99.90;;;;;;5049088;28;20208;-79
2022/08/18 04:53:44;;;;;;;1012.08;922.72;;;22.90;99.90;;;;;;5040722;28;20210;-79
2022/08/18 04:56:17;;;;;;;1023.20;933.60;;;22.90;99.90;;;;;;5043200;28;20277;-79
2022/08/18 04:58:47;;;;;;;1028.10;938.22;;;22.90;99.90;;;;;;5049414;28;20195;-79
2022/08/18 05:01:16;;;;;;;1016.40;926.83;;;22.90;99.90;;;;;;5044801;28;20230;-79
2022/08/18 05:03:43;;;;;;;1012.83;923.63;;;22.80;99.90;;;;;;5042072;28;20579;-79
2022/08/18 05:06:10;;;;;;;1009.97;920.47;;;22.80;99.90;;;;;;5042368;28;20191;-79
2022/08/18 05:08:37;;;;;;;1016.75;927.42;;;22.80;99.90;;;;;;5051212;28;20214;-80
2022/08/18 05:11:04;;;;;;;1013.33;923.78;;;22.80;99.90;;;;;;5047075;28;20202;-79
2022/08/18 05:13:31;;;;;;;1019.17;929.40;;;22.80;99.90;;;;;;5049956;28;20206;-79
2022/08/18 05:16:02;;;;;;;1020.70;931.03;;;22.80;99.90;;;;;;5039572;28;20310;-79
2022/08/18 05:18:30;;;;;;;1022.75;932.75;;;22.80;99.90;;;;;;5045897;28;20270;-80
2022/08/18 05:21:00;;;;;;;1016.17;926.72;;;22.80;99.90;;;;;;5042904;28;20250;-79
2022/08/18 05:23:28;;;;;;;1018.78;929.00;;;22.80;99.90;;;;;;5041159;28;20211;-79
2022/08/18 05:25:58;;;;;;;1025.05;935.20;;;22.80;99.90;;;;;;5052899;28;20662;-79
2022/08/18 05:28:24;;;;;;;1028.22;938.22;;;22.80;99.90;;;;;;5054810;28;20373;-79
2022/08/18 05:30:51;;;;;;;1021.03;931.00;;;22.80;99.90;;;;;;5047449;28;20203;-79
2022/08/18 05:33:18;;;;;;;1018.28;928.50;;;22.80;99.90;;;;;;5043870;28;20209;-79
2022/08/18 05:35:50;;;;;;;1036.18;945.95;;;22.80;99.90;;;;;;5049265;28;20653;-79
2022/08/18 05:38:28;;;;;;;1035.60;945.03;;;22.80;99.90;;;;;;5049896;28;20199;-79
2022/08/18 05:41:06;;;;;;;1018.65;928.90;;;22.70;99.90;;;;;;5050404;28;20199;-78
2022/08/18 05:43:33;;;;;;;1006.63;917.40;;;22.70;99.90;;;;;;5036849;28;20215;-78
2022/08/18 05:46:04;;;;;;;1025.97;935.78;;;22.80;99.90;;;;;;5049577;28;20197;-79
2022/08/18 05:48:30;;;;;;;1012.03;922.50;;;22.70;99.90;;;;;;5051971;28;20244;-79
2022/08/18 05:51:01;;;;;;;1013.92;924.45;;;22.70;99.90;;;;;;5041488;28;20285;-79
2022/08/18 05:58:57;;;;;;;1005.42;916.15;;;22.70;99.90;;;;;;5051437;28;20193;-79
2022/08/18 06:01:28;;;;;;;1015.90;926.42;;;22.70;99.90;;;;;;5056882;28;20198;-79
2022/08/18 06:04:02;;;;;;;1010.67;921.30;;;22.70;99.90;;;;;;5044752;28;20200;-78
2022/08/18 06:06:33;;;;;;;1002.85;913.28;;;22.70;99.90;;;;;;5043017;28;20562;-78
2022/08/18 06:09:07;;;;;;;1008.83;919.15;;;22.70;99.90;;;;;;5049789;28;20219;-78
2022/08/18 06:11:33;;;;;;;1013.67;923.75;;;22.70;99.90;;;;;;5048052;28;20558;-79
2022/08/18 06:14:00;;;;;;;1012.28;922.75;;;22.70;99.90;;;;;;5043328;28;20570;-80
2022/08/18 06:16:44;;;;;;;1033.20;942.80;;;22.70;99.90;;;;;;5038016;28;20195;-78
2022/08/18 06:19:24;;;;;;;1007.65;918.30;;;22.70;99.90;;;;;;5037064;28;20211;-78
2022/08/18 06:22:01;;;;;;;1017.05;926.92;;;22.70;99.90;;;;;;5041601;28;20602;-78
2022/08/18 06:24:36;;;;;;;1015.65;925.67;;;22.70;99.90;;;;;;5046106;28;20206;-80
2022/08/18 06:27:10;;;;;;;1017.90;927.67;;;22.70;99.90;;;;;;5051783;28;20705;-80
2022/08/18 06:29:49;;;;;;;1006.90;917.10;;;22.70;99.90;;;;;;5050303;28;20218;-79
2022/08/18 06:32:27;;;;;;;1020.17;930.10;;;22.70;99.90;;;;;;5049247;28;20198;-79
2022/08/18 06:35:11;;;;;;;1005.28;915.58;;;22.70;99.90;;;;;;5045828;28;20203;-80
2022/08/18 06:40:26;;;;;;;994.75;905.67;;;22.70;99.90;;;;;;5049196;28;20532;-80
2022/08/18 06:42:53;;;;;;;1004.20;914.42;;;22.70;99.90;;;;;;5049771;28;20217;-79
2022/08/18 06:45:35;;;;;;;1009.65;919.85;;;22.60;99.90;;;;;;5040137;28;20546;-79
2022/08/18 06:48:09;;;;;;;1012.22;922.00;;;22.60;99.90;;;;;;5043256;28;20195;-79
2022/08/18 06:50:46;;;;;;;1012.92;922.80;;;22.60;99.90;;;;;;5045601;28;20601;-79
2022/08/18 06:53:14;;;;;;;1007.85;917.97;;;22.60;99.90;;;;;;5051629;28;20206;-80
2022/08/18 06:55:44;;;;;;;1008.88;919.03;;;22.60;99.90;;;;;;5045656;28;20200;-79
2022/08/18 06:58:24;;;;;;;1007.78;917.60;;;22.60;99.90;;;;;;5051983;28;20253;-80
2022/08/18 07:00:58;;;;;;;1006.88;917.35;;;22.60;99.90;;;;;;5048095;28;20207;-78
2022/08/18 07:03:42;;;;;;;1013.33;922.67;;;22.60;99.90;;;;;;5049615;28;20199;-79
2022/08/18 07:06:11;;;;;;;997.63;907.83;;;22.60;99.90;;;;;;5039624;28;20190;-80
2022/08/18 07:08:40;;;;;;;1011.58;921.58;;;22.60;99.90;;;;;;5052520;28;20220;-79
2022/08/18 07:11:19;;;;;;;1003.38;913.63;;;22.60;99.90;;;;;;5043966;28;20199;-79
2022/08/18 07:13:47;;;;;;;1010.83;920.95;;;22.60;99.90;;;;;;5046667;28;20570;-79
2022/08/18 07:16:17;;;;;;;1026.55;936.13;;;22.60;99.90;;;;;;5043727;28;20590;-78
2022/08/18 07:18:45;;;;;;;1005.10;914.95;;;22.60;99.90;;;;;;5048489;28;20570;-79
2022/08/18 07:21:24;;;;;;;1017.90;927.53;;;22.60;99.90;;;;;;5047505;28;20268;-79
2022/08/18 07:24:01;;;;;;;992.00;902.95;;;22.60;99.90;;;;;;5046851;28;20217;-79
2022/08/18 07:26:28;;;;;;;994.80;905.17;;;22.60;99.90;;;;;;5036503;28;20203;-78
2022/08/18 07:28:55;;;;;;;1006.05;916.53;;;22.60;99.90;;;;;;5048263;28;20215;-79
2022/08/18 07:31:38;;;;;;;1005.90;916.33;;;22.60;99.90;;;;;;5043008;28;20570;-79
2022/08/18 07:34:14;;;;;;;1003.53;913.78;;;22.60;99.90;;;;;;5035463;28;20570;-79
2022/08/18 07:36:47;;;;;;;996.55;907.15;;;22.60;99.90;;;;;;5040035;28;20203;-79
2022/08/18 07:39:23;;;;;;;996.22;906.95;;;22.60;99.90;;;;;;5044998;28;20711;-79
2022/08/18 07:41:56;;;;;;;1008.95;919.22;;;22.60;99.90;;;;;;5037787;28;20210;-79
2022/08/18 07:44:34;;;;;;;1008.72;919.10;;;22.60;99.90;;;;;;5039893;28;20200;-80
2022/08/18 07:47:04;;;;;;;1013.90;923.42;;;22.60;99.90;;;;;;5050540;28;20195;-79
2022/08/18 07:49:35;;;;;;;1016.40;925.20;;;22.60;99.90;;;;;;5048028;28;20211;-79
2022/08/18 07:52:06;;;;;;;1003.88;913.17;;;22.60;99.90;;;;;;5038980;28;20199;-79
2022/08/18 07:54:44;;;;;;;999.45;909.38;;;22.60;99.90;;;;;;5047998;28;20203;-79
2022/08/18 07:57:19;;;;;;;1026.25;935.35;;;22.60;99.90;;;;;;5047252;28;20729;-78
2022/08/18 07:59:52;;;;;;;1009.80;919.08;;;22.60;99.90;;;;;;5049987;28;20203;-77
2022/08/18 08:02:38;;;;;;;1011.08;920.38;;;22.60;99.90;;;;;;5048984;28;20195;-81
2022/08/18 08:05:12;;;;;;;1015.47;925.20;;;22.60;99.90;;;;;;5045869;28;20191;-81
2022/08/18 08:07:49;;;;;;;1008.17;918.55;;;22.60;99.90;;;;;;5044459;28;20199;-81
2022/08/18 08:10:34;;;;;;;1009.30;919.63;;;22.60;99.90;;;;;;5050003;28;20551;-81
2022/08/18 08:13:16;;;;;;;1007.17;916.83;;;22.70;99.90;;;;;;5039181;28;20225;-83
2022/08/18 08:15:54;;;;;;;1013.13;922.78;;;22.70;99.90;;;;;;5046837;28;20245;-78
2022/08/18 08:18:32;;;;;;;1017.30;927.03;;;22.60;99.90;;;;;;5046240;28;20634;-79
2022/08/18 08:21:03;;;;;;;1013.78;924.03;;;22.70;99.90;;;;;;5047339;28;20245;-78
2022/08/18 08:23:35;;;;;;;1008.45;918.35;;;22.70;99.90;;;;;;5041249;28;20659;-79
2022/08/18 08:26:34;;;;;;;1012.58;922.72;;;22.70;99.90;;;;;;5033969;28;20226;-79
2022/08/18 08:29:17;;;;;;;1009.78;919.72;;;22.70;99.90;;;;;;5038139;28;20211;-79
2022/08/18 08:31:50;;;;;;;1017.17;926.97;;;22.70;99.90;;;;;;5045845;28;20226;-80
2022/08/18 08:34:24;;;;;;;1015.78;925.78;;;22.70;99.90;;;;;;5049319;28;20207;-79
2022/08/18 08:36:58;;;;;;;1005.70;916.38;;;22.80;99.90;;;;;;5038507;28;20209;-82
2022/08/18 08:39:33;;;;;;;998.00;908.53;;;22.70;99.90;;;;;;5035475;28;20548;-79
2022/08/18 08:42:11;;;;;;;1027.78;937.50;;;22.80;99.90;;;;;;5045325;28;20214;-79
2022/08/18 08:44:42;;;;;;;1012.75;922.63;;;22.80;99.90;;;;;;5035191;28;20567;-80
2022/08/18 08:47:17;;;;;;;1004.80;915.50;;;22.80;99.90;;;;;;5038807;28;20298;-79
2022/08/18 08:49:48;;;;;;;1006.97;917.47;;;22.80;99.90;;;;;;5044262;28;20203;-80
2022/08/18 08:52:20;;;;;;;1010.92;921.22;;;22.80;99.90;;;;;;5048418;28;20199;-80
2022/08/18 08:54:52;;;;;;;1028.32;938.05;;;22.80;99.90;;;;;;5045204;28;20210;-79
2022/08/18 08:57:25;;;;;;;1018.15;928.65;;;22.80;99.90;;;;;;5043139;28;20191;-79
2022/08/18 08:59:55;;;;;;;1014.70;925.35;;;22.80;99.90;;;;;;5044514;28;20206;-80
2022/08/18 09:02:58;;;;;;;1022.53;932.70;;;22.90;99.90;;;;;;5046812;28;20204;-80
2022/08/18 09:05:30;;;;;;;999.60;910.13;;;22.90;99.90;;;;;;5006902;28;20210;-80
2022/08/18 09:08:27;;;;;;;1013.95;924.30;;;22.90;99.90;;;;;;5037185;28;20200;-80
2022/08/18 09:11:17;;;;;;;1026.53;936.47;;;22.90;99.90;;;;;;5048491;28;20227;-81
2022/08/18 09:14:17;;;;;;;1003.60;914.40;;;22.90;99.90;;;;;;5047082;28;20673;-80
2022/08/18 09:16:55;;;;;;;1015.92;926.42;;;22.90;99.90;;;;;;5046623;28;20194;-80
2022/08/18 09:19:47;;;;;;;1003.38;914.30;;;22.90;99.90;;;;;;5042326;28;20229;-80
2022/08/18 09:22:24;;;;;;;1014.25;924.53;;;22.90;99.90;;;;;;5041417;28;20643;-79
2022/08/18 09:24:53;;;;;;;1009.83;920.83;;;22.90;99.90;;;;;;5043221;28;20779;-80
2022/08/18 09:27:39;;;;;;;1001.58;912.70;;;22.90;99.90;;;;;;5041362;28;20594;-80
2022/08/18 09:30:29;;;;;;;999.83;910.85;;;22.90;99.90;;;;;;5042987;28;20559;-80
2022/08/18 09:33:12;;;;;;;1002.65;913.58;;;22.90;99.90;;;;;;5035777;28;20210;-80
2022/08/18 09:36:06;;;;;;;1002.97;914.30;;;22.90;99.90;;;;;;5035310;28;20199;-80
2022/08/18 09:41:34;;;;;;;1015.28;926.28;;;22.90;99.90;;;;;;5038795;28;20233;-80
2022/08/18 09:44:13;;;;;;;997.03;908.33;;;22.90;99.90;;;;;;5041796;28;20195;-80
2022/08/18 09:46:55;;;;;;;998.17;909.42;;;22.90;99.90;;;;;;5037805;28;20911;-81
2022/08/18 09:49:41;;;;;;;1001.50;912.50;;;22.90;99.90;;;;;;5039884;28;20223;-80
2022/08/18 09:52:53;;;;;;;1002.88;913.90;;;23.00;99.90;;;;;;5036886;28;20195;-80
2022/08/18 09:55:53;;;;;;;1012.33;923.50;;;23.00;99.90;;;;;;5050052;28;20203;-80
2022/08/18 09:58:47;;;;;;;1008.95;920.28;;;23.00;99.90;;;;;;5036616;28;20274;-80
2022/08/18 10:01:23;;;;;;;1010.83;921.63;;;23.00;99.90;;;;;;5044150;28;20206;-78
2022/08/18 10:04:19;;;;;;;1003.15;914.85;;;23.00;99.90;;;;;;5049930;28;20190;-80
2022/08/18 10:06:48;;;;;;;1029.25;939.78;;;23.00;99.90;;;;;;5039035;28;20290;-83
2022/08/18 10:09:33;;;;;;;1015.92;926.58;;;23.00;99.90;;;;;;5040118;28;20203;-82
2022/08/18 10:12:18;;;;;;;1014.20;925.35;;;23.00;99.90;;;;;;5052761;28;20654;-82
2022/08/18 10:15:08;;;;;;;1024.25;934.97;;;23.00;99.90;;;;;;5050463;28;20210;-83
2022/08/18 10:17:53;;;;;;;1012.15;923.40;;;23.00;99.90;;;;;;5041099;28;20726;-82
2022/08/18 10:20:36;;;;;;;1010.17;921.28;;;23.10;99.90;;;;;;5037884;28;20207;-83
2022/08/18 10:23:06;;;;;;;1007.17;918.20;;;23.10;99.90;;;;;;5052897;28;20211;-82
2022/08/18 10:25:37;;;;;;;1020.80;931.53;;;23.10;99.90;;;;;;5058087;28;20286;-82
2022/08/18 10:28:05;;;;;;;1026.88;937.40;;;23.10;99.90;;;;;;5048434;28;20626;-82
2022/08/18 10:31:05;;;;;;;1023.78;934.67;;;23.10;99.90;;;;;;5046688;28;20222;-83
2022/08/18 10:33:56;;;;;;;1010.75;921.92;;;23.10;99.90;;;;;;5048585;28;20203;-84
2022/08/18 10:36:51;;;;;;;1022.13;933.10;;;23.10;99.90;;;;;;5038089;28;20200;-83
2022/08/18 10:39:21;;;;;;;1006.13;917.78;;;23.20;99.90;;;;;;5027998;28;20195;-84
2022/08/18 10:41:58;;;;;;;1022.95;933.97;;;23.20;99.90;;;;;;5037957;28;20619;-81
2022/08/18 10:44:27;;;;;;;1021.53;932.53;;;23.10;99.90;;;;;;5043580;28;20862;-81
2022/08/18 10:46:55;;;;;;;1013.35;924.50;;;23.20;99.90;;;;;;5044876;28;20196;-81
2022/08/18 10:49:26;;;;;;;1022.20;932.75;;;23.10;99.90;;;;;;5046604;28;20195;-81
2022/08/18 10:52:23;;;;;;;1027.15;937.78;;;23.20;99.90;;;;;;5044653;28;20242;-83
2022/08/18 10:55:09;;;;;;;1032.57;943.17;;;23.20;99.90;;;;;;5043561;28;20662;-81
2022/08/18 10:58:02;;;;;;;1018.95;929.97;;;23.20;99.90;;;;;;5061155;28;20253;-82
2022/08/18 11:00:44;;;;;;;1025.25;935.90;;;23.20;99.90;;;;;;5046236;28;20206;-81
2022/08/18 11:03:20;;;;;;;1035.70;945.88;;;23.20;99.90;;;;;;5041640;28;20218;-81
2022/08/18 11:05:47;;;;;;;1029.55;940.33;;;23.30;99.90;;;;;;5044053;28;20203;-81
2022/08/18 11:08:20;;;;;;;1028.68;939.15;;;23.30;99.90;;;;;;5041586;28;20195;-81
2022/08/18 11:10:50;;;;;;;1049.28;959.22;;;23.40;99.90;;;;;;5033329;28;20223;-81
2022/08/18 11:13:27;;;;;;;1028.40;939.25;;;23.50;99.90;;;;;;5037127;28;20224;-82
2022/08/18 11:16:03;;;;;;;1047.57;957.58;;;23.60;99.90;;;;;;5046621;28;20195;-81
2022/08/18 11:18:35;;;;;;;1051.60;961.65;;;23.60;99.90;;;;;;5048700;28;20678;-82
2022/08/18 11:21:38;;;;;;;1048.43;958.45;;;23.70;99.90;;;;;;5048236;28;20764;-81
2022/08/18 11:24:08;;;;;;;1043.43;953.33;;;23.70;99.90;;;;;;5034544;28;20206;-80
2022/08/18 11:26:39;;;;;;;1022.17;933.20;;;23.70;99.90;;;;;;5049763;28;20218;-82
2022/08/18 11:29:21;;;;;;;1037.75;948.17;;;23.70;99.90;;;;;;5043128;28;20200;-83
2022/08/18 11:31:49;;;;;;;1016.72;928.05;;;23.70;99.90;;;;;;5045119;28;20215;-83
2022/08/18 11:34:19;;;;;;;1061.40;970.97;;;23.60;99.90;;;;;;5048978;28;20203;-83
2022/08/18 11:36:56;;;;;;;1033.75;944.38;;;23.70;99.90;;;;;;5046912;28;20203;-80
2022/08/18 11:39:23;;;;;;;1044.97;955.28;;;23.70;99.90;;;;;;5051480;28;20218;-79
2022/08/18 11:41:52;;;;;;;1051.50;961.40;;;23.70;99.90;;;;;;5049061;28;20211;-79
2022/08/18 11:44:23;;;;;;;1045.68;956.25;;;23.70;99.90;;;;;;5050587;28;20202;-81
2022/08/18 11:46:54;;;;;;;1053.35;963.33;;;23.80;99.90;;;;;;5047178;28;20213;-79
2022/08/18 11:49:31;;;;;;;1051.40;961.65;;;23.80;99.90;;;;;;5047722;28;20205;-81
2022/08/18 11:52:04;;;;;;;1054.20;964.22;;;23.80;99.90;;;;;;5040596;28;20215;-83
2022/08/18 11:54:39;;;;;;;1048.70;959.15;;;23.80;99.90;;;;;;5050977;28;20245;-81
2022/08/18 11:57:44;;;;;;;1053.35;963.15;;;23.80;99.90;;;;;;5038330;28;20230;-81
2022/08/18 12:00:48;;;;;;;1032.15;942.97;;;23.90;99.90;;;;;;5036872;28;20608;-82
2022/08/18 12:03:26;;;;;;;1044.50;955.10;;;23.90;99.90;;;;;;5034550;28;20203;-79
2022/08/18 12:05:57;;;;;;;1041.07;951.55;;;24.00;99.90;;;;;;5045854;28;20206;-79
2022/08/18 12:08:34;;;;;;;1055.22;965.13;;;24.00;99.90;;;;;;5043678;28;20196;-78
2022/08/18 12:11:07;;;;;;;1065.60;974.97;;;24.00;99.90;;;;;;5051300;28;20216;-79
2022/08/18 12:13:34;;;;;;;1053.13;963.15;;;24.00;99.90;;;;;;5042980;28;20211;-79
2022/08/18 12:16:14;;;;;;;1060.25;969.95;;;24.10;99.90;;;;;;5039121;28;20579;-80
2022/08/18 12:18:42;;;;;;;1051.45;961.30;;;24.10;99.90;;;;;;5039501;28;20622;-80
2022/08/18 12:21:10;;;;;;;1063.30;972.67;;;24.10;99.90;;;;;;5031306;28;20200;-78
2022/08/18 12:23:40;;;;;;;1069.47;978.63;;;24.10;99.90;;;;;;5040656;28;20523;-78
2022/08/18 12:26:07;;;;;;;1052.40;962.15;;;24.20;99.90;;;;;;5052121;28;20252;-80
2022/08/18 12:28:34;;;;;;;1060.20;969.92;;;24.20;99.90;;;;;;5043381;28;20642;-78
2022/08/18 12:31:01;;;;;;;1075.97;985.17;;;24.20;99.90;;;;;;5035638;28;20574;-79
2022/08/18 12:33:28;;;;;;;1064.28;973.92;;;24.20;99.90;;;;;;5047657;28;20199;-78
2022/08/18 12:35:56;;;;;;;1057.63;967.53;;;24.20;99.90;;;;;;5038801;28;20274;-79
2022/08/18 12:38:23;;;;;;;1076.78;985.95;;;24.30;99.90;;;;;;5036273;28;20582;-79
2022/08/18 12:40:50;;;;;;;1080.60;989.38;;;24.30;99.90;;;;;;5039141;28;20587;-80
2022/08/18 12:43:17;;;;;;;1060.57;970.53;;;24.30;99.90;;;;;;5040889;28;20758;-80